sensor_id;sensor_type;location;lat;lon;timestamp;P1;durP1;ratioP1;P2;durP2;ratioP2
54328;SDS011;40710;51.120;13.136;2023-07-02T00:00:27;3.50;;;3.50;;
54328;SDS011;40710;51.120;13.136;2023-07-02T00:02:51;3.70;;;3.70;;
54328;SDS011;40710;51.120;13.136;2023-07-02T00:05:16;3.31;;;3.31;;
54328;SDS011;40710;51.120;13.136;2023-07-02T00:07:41;3.23;;;3.23;;
54328;SDS011;40710;51.120;13.136;2023-07-02T00:10:06;3.17;;;3.17;;
54328;SDS011;40710;51.120;13.136;2023-07-02T00:12:31;3.33;;;3.33;;
54328;SDS011;40710;51.120;13.136;2023-07-02T00:14:55;3.75;;;3.75;;
54328;SDS011;40710;51.120;13.136;2023-07-02T00:17:20;3.27;;;3.27;;
54328;SDS011;40710;51.120;13.136;2023-07-02T00:19:45;3.02;;;3.02;;
54328;SDS011;40710;51.120;13.136;2023-07-02T00:22:10;3.05;;;3.05;;
54328;SDS011;40710;51.120;13.136;2023-07-02T00:24:35;3.04;;;3.04;;
54328;SDS011;40710;51.120;13.136;2023-07-02T00:27:00;3.07;;;3.07;;
54328;SDS011;40710;51.120;13.136;2023-07-02T00:29:24;2.98;;;2.98;;
54328;SDS011;40710;51.120;13.136;2023-07-02T00:31:49;2.89;;;2.89;;
54328;SDS011;40710;51.120;13.136;2023-07-02T00:34:13;2.62;;;2.62;;
54328;SDS011;40710;51.120;13.136;2023-07-02T00:36:38;2.76;;;2.76;;
54328;SDS011;40710;51.120;13.136;2023-07-02T00:39:02;2.79;;;2.79;;
54328;SDS011;40710;51.120;13.136;2023-07-02T00:41:27;2.78;;;2.78;;
54328;SDS011;40710;51.120;13.136;2023-07-02T00:43:52;2.83;;;2.83;;
54328;SDS011;40710;51.120;13.136;2023-07-02T00:46:19;2.93;;;2.93;;
54328;SDS011;40710;51.120;13.136;2023-07-02T00:51:14;2.64;;;2.64;;
54328;SDS011;40710;51.120;13.136;2023-07-02T00:53:40;2.73;;;2.73;;
54328;SDS011;40710;51.120;13.136;2023-07-02T00:56:05;2.82;;;2.82;;
54328;SDS011;40710;51.120;13.136;2023-07-02T00:58:29;2.74;;;2.74;;
54328;SDS011;40710;51.120;13.136;2023-07-02T01:00:54;2.79;;;2.79;;
54328;SDS011;40710;51.120;13.136;2023-07-02T01:03:20;2.77;;;2.77;;
54328;SDS011;40710;51.120;13.136;2023-07-02T01:05:46;2.62;;;2.62;;
54328;SDS011;40710;51.120;13.136;2023-07-02T01:08:10;2.45;;;2.45;;
54328;SDS011;40710;51.120;13.136;2023-07-02T01:10:36;2.64;;;2.64;;
54328;SDS011;40710;51.120;13.136;2023-07-02T01:13:05;2.72;;;2.71;;
54328;SDS011;40710;51.120;13.136;2023-07-02T01:15:35;2.50;;;2.50;;
54328;SDS011;40710;51.120;13.136;2023-07-02T01:18:01;2.70;;;2.70;;
54328;SDS011;40710;51.120;13.136;2023-07-02T01:20:27;2.42;;;2.42;;
54328;SDS011;40710;51.120;13.136;2023-07-02T01:22:54;2.77;;;2.77;;
54328;SDS011;40710;51.120;13.136;2023-07-02T01:25:19;2.61;;;2.61;;
54328;SDS011;40710;51.120;13.136;2023-07-02T01:27:48;2.79;;;2.79;;
54328;SDS011;40710;51.120;13.136;2023-07-02T01:30:13;2.53;;;2.53;;
54328;SDS011;40710;51.120;13.136;2023-07-02T01:32:38;2.50;;;2.50;;
54328;SDS011;40710;51.120;13.136;2023-07-02T01:35:03;2.73;;;2.73;;
54328;SDS011;40710;51.120;13.136;2023-07-02T01:37:27;2.79;;;2.79;;
54328;SDS011;40710;51.120;13.136;2023-07-02T01:39:52;2.68;;;2.68;;
54328;SDS011;40710;51.120;13.136;2023-07-02T01:42:17;2.29;;;2.29;;
54328;SDS011;40710;51.120;13.136;2023-07-02T01:44:43;2.46;;;2.46;;
54328;SDS011;40710;51.120;13.136;2023-07-02T01:47:09;2.67;;;2.67;;
54328;SDS011;40710;51.120;13.136;2023-07-02T01:49:35;2.64;;;2.64;;
54328;SDS011;40710;51.120;13.136;2023-07-02T01:55:49;2.70;;;2.70;;
54328;SDS011;40710;51.120;13.136;2023-07-02T01:58:15;2.44;;;2.44;;
54328;SDS011;40710;51.120;13.136;2023-07-02T02:00:40;2.44;;;2.44;;
54328;SDS011;40710;51.120;13.136;2023-07-02T02:03:04;2.56;;;2.56;;
54328;SDS011;40710;51.120;13.136;2023-07-02T02:05:29;2.43;;;2.43;;
54328;SDS011;40710;51.120;13.136;2023-07-02T02:07:53;2.49;;;2.49;;
54328;SDS011;40710;51.120;13.136;2023-07-02T02:10:18;2.25;;;2.25;;
54328;SDS011;40710;51.120;13.136;2023-07-02T02:12:42;2.36;;;2.36;;
54328;SDS011;40710;51.120;13.136;2023-07-02T02:15:07;2.26;;;2.26;;
54328;SDS011;40710;51.120;13.136;2023-07-02T02:17:31;3.18;;;3.18;;
54328;SDS011;40710;51.120;13.136;2023-07-02T02:19:56;5.42;;;5.42;;
54328;SDS011;40710;51.120;13.136;2023-07-02T02:22:20;2.25;;;2.25;;
54328;SDS011;40710;51.120;13.136;2023-07-02T02:24:45;2.28;;;2.28;;
54328;SDS011;40710;51.120;13.136;2023-07-02T02:27:10;2.34;;;2.34;;
54328;SDS011;40710;51.120;13.136;2023-07-02T02:29:35;2.10;;;2.10;;
54328;SDS011;40710;51.120;13.136;2023-07-02T02:32:00;2.14;;;2.14;;
54328;SDS011;40710;51.120;13.136;2023-07-02T02:34:25;2.21;;;2.21;;
54328;SDS011;40710;51.120;13.136;2023-07-02T02:36:49;2.25;;;2.25;;
54328;SDS011;40710;51.120;13.136;2023-07-02T02:39:14;2.52;;;2.52;;
54328;SDS011;40710;51.120;13.136;2023-07-02T02:41:39;2.34;;;2.34;;
54328;SDS011;40710;51.120;13.136;2023-07-02T02:44:04;2.55;;;2.55;;
54328;SDS011;40710;51.120;13.136;2023-07-02T02:46:29;2.06;;;2.06;;
54328;SDS011;40710;51.120;13.136;2023-07-02T02:48:55;2.10;;;2.10;;
54328;SDS011;40710;51.120;13.136;2023-07-02T02:51:20;2.05;;;2.05;;
54328;SDS011;40710;51.120;13.136;2023-07-02T02:53:44;2.06;;;2.06;;
54328;SDS011;40710;51.120;13.136;2023-07-02T02:56:09;2.06;;;2.06;;
54328;SDS011;40710;51.120;13.136;2023-07-02T02:58:33;2.28;;;2.28;;
54328;SDS011;40710;51.120;13.136;2023-07-02T03:00:58;2.94;;;2.94;;
54328;SDS011;40710;51.120;13.136;2023-07-02T03:03:22;3.26;;;3.26;;
54328;SDS011;40710;51.120;13.136;2023-07-02T03:05:48;3.35;;;3.35;;
54328;SDS011;40710;51.120;13.136;2023-07-02T03:08:12;2.15;;;2.15;;
54328;SDS011;40710;51.120;13.136;2023-07-02T03:10:37;1.95;;;1.95;;
54328;SDS011;40710;51.120;13.136;2023-07-02T03:13:02;2.26;;;2.26;;
54328;SDS011;40710;51.120;13.136;2023-07-02T03:15:26;2.03;;;2.03;;
54328;SDS011;40710;51.120;13.136;2023-07-02T03:17:51;2.13;;;2.13;;
54328;SDS011;40710;51.120;13.136;2023-07-02T03:20:15;2.04;;;2.04;;
54328;SDS011;40710;51.120;13.136;2023-07-02T03:22:41;2.22;;;2.22;;
54328;SDS011;40710;51.120;13.136;2023-07-02T03:25:05;2.15;;;2.15;;
54328;SDS011;40710;51.120;13.136;2023-07-02T03:27:30;2.40;;;2.40;;
54328;SDS011;40710;51.120;13.136;2023-07-02T03:29:54;2.37;;;2.37;;
54328;SDS011;40710;51.120;13.136;2023-07-02T03:32:19;2.38;;;2.38;;
54328;SDS011;40710;51.120;13.136;2023-07-02T03:34:44;2.44;;;2.44;;
54328;SDS011;40710;51.120;13.136;2023-07-02T03:37:08;2.28;;;2.28;;
54328;SDS011;40710;51.120;13.136;2023-07-02T03:39:33;2.44;;;2.44;;
54328;SDS011;40710;51.120;13.136;2023-07-02T03:41:58;2.30;;;2.30;;
54328;SDS011;40710;51.120;13.136;2023-07-02T03:44:22;2.60;;;2.60;;
54328;SDS011;40710;51.120;13.136;2023-07-02T03:46:47;2.75;;;2.75;;
54328;SDS011;40710;51.120;13.136;2023-07-02T03:49:11;2.32;;;2.32;;
54328;SDS011;40710;51.120;13.136;2023-07-02T03:51:36;2.38;;;2.38;;
54328;SDS011;40710;51.120;13.136;2023-07-02T03:54:00;2.92;;;2.92;;
54328;SDS011;40710;51.120;13.136;2023-07-02T03:56:25;4.34;;;4.34;;
54328;SDS011;40710;51.120;13.136;2023-07-02T03:58:50;2.65;;;2.65;;
54328;SDS011;40710;51.120;13.136;2023-07-02T04:01:15;2.62;;;2.62;;
54328;SDS011;40710;51.120;13.136;2023-07-02T04:03:42;2.51;;;2.51;;
54328;SDS011;40710;51.120;13.136;2023-07-02T04:06:13;2.51;;;2.51;;
54328;SDS011;40710;51.120;13.136;2023-07-02T04:08:37;2.58;;;2.58;;
54328;SDS011;40710;51.120;13.136;2023-07-02T04:11:02;2.74;;;2.74;;
54328;SDS011;40710;51.120;13.136;2023-07-02T04:13:26;2.80;;;2.80;;
54328;SDS011;40710;51.120;13.136;2023-07-02T04:15:51;2.80;;;2.80;;
54328;SDS011;40710;51.120;13.136;2023-07-02T04:18:15;2.75;;;2.75;;
54328;SDS011;40710;51.120;13.136;2023-07-02T04:20:40;2.65;;;2.65;;
54328;SDS011;40710;51.120;13.136;2023-07-02T04:23:05;2.75;;;2.75;;
54328;SDS011;40710;51.120;13.136;2023-07-02T04:25:30;2.60;;;2.60;;
54328;SDS011;40710;51.120;13.136;2023-07-02T04:27:54;2.79;;;2.79;;
54328;SDS011;40710;51.120;13.136;2023-07-02T04:30:20;2.78;;;2.78;;
54328;SDS011;40710;51.120;13.136;2023-07-02T04:32:45;3.02;;;3.02;;
54328;SDS011;40710;51.120;13.136;2023-07-02T04:35:09;2.83;;;2.83;;
54328;SDS011;40710;51.120;13.136;2023-07-02T04:37:35;2.87;;;2.87;;
54328;SDS011;40710;51.120;13.136;2023-07-02T04:40:00;2.81;;;2.81;;
54328;SDS011;40710;51.120;13.136;2023-07-02T04:42:24;3.39;;;3.39;;
54328;SDS011;40710;51.120;13.136;2023-07-02T04:44:52;4.02;;;4.02;;
54328;SDS011;40710;51.120;13.136;2023-07-02T04:47:18;3.54;;;3.54;;
54328;SDS011;40710;51.120;13.136;2023-07-02T04:49:42;2.70;;;2.70;;
54328;SDS011;40710;51.120;13.136;2023-07-02T04:52:07;2.76;;;2.76;;
54328;SDS011;40710;51.120;13.136;2023-07-02T04:54:31;2.83;;;2.83;;
54328;SDS011;40710;51.120;13.136;2023-07-02T04:56:56;2.87;;;2.87;;
54328;SDS011;40710;51.120;13.136;2023-07-02T04:59:23;2.84;;;2.84;;
54328;SDS011;40710;51.120;13.136;2023-07-02T05:01:47;2.88;;;2.88;;
54328;SDS011;40710;51.120;13.136;2023-07-02T05:04:12;2.86;;;2.86;;
54328;SDS011;40710;51.120;13.136;2023-07-02T05:06:37;2.85;;;2.85;;
54328;SDS011;40710;51.120;13.136;2023-07-02T05:09:01;3.15;;;3.15;;
54328;SDS011;40710;51.120;13.136;2023-07-02T05:11:26;3.07;;;3.07;;
54328;SDS011;40710;51.120;13.136;2023-07-02T05:13:51;3.01;;;3.01;;
54328;SDS011;40710;51.120;13.136;2023-07-02T05:16:16;3.88;;;3.88;;
54328;SDS011;40710;51.120;13.136;2023-07-02T05:18:41;4.41;;;4.41;;
54328;SDS011;40710;51.120;13.136;2023-07-02T05:21:05;3.00;;;3.00;;
54328;SDS011;40710;51.120;13.136;2023-07-02T05:23:30;3.08;;;3.08;;
54328;SDS011;40710;51.120;13.136;2023-07-02T05:25:54;3.02;;;3.02;;
54328;SDS011;40710;51.120;13.136;2023-07-02T05:28:19;2.88;;;2.88;;
54328;SDS011;40710;51.120;13.136;2023-07-02T05:30:44;5.08;;;5.08;;
54328;SDS011;40710;51.120;13.136;2023-07-02T05:33:08;6.08;;;6.08;;
54328;SDS011;40710;51.120;13.136;2023-07-02T05:35:33;3.24;;;3.24;;
54328;SDS011;40710;51.120;13.136;2023-07-02T05:37:58;3.31;;;3.31;;
54328;SDS011;40710;51.120;13.136;2023-07-02T05:40:22;3.21;;;3.21;;
54328;SDS011;40710;51.120;13.136;2023-07-02T05:42:47;3.19;;;3.19;;
54328;SDS011;40710;51.120;13.136;2023-07-02T05:45:11;3.39;;;3.39;;
54328;SDS011;40710;51.120;13.136;2023-07-02T05:47:36;3.47;;;3.47;;
54328;SDS011;40710;51.120;13.136;2023-07-02T05:50:00;3.14;;;3.14;;
54328;SDS011;40710;51.120;13.136;2023-07-02T05:52:25;3.19;;;3.19;;
54328;SDS011;40710;51.120;13.136;2023-07-02T05:54:49;3.36;;;3.36;;
54328;SDS011;40710;51.120;13.136;2023-07-02T05:57:14;3.35;;;3.35;;
54328;SDS011;40710;51.120;13.136;2023-07-02T05:59:38;3.65;;;3.65;;
54328;SDS011;40710;51.120;13.136;2023-07-02T06:02:03;3.56;;;3.56;;
54328;SDS011;40710;51.120;13.136;2023-07-02T06:04:27;3.42;;;3.42;;
54328;SDS011;40710;51.120;13.136;2023-07-02T06:06:52;3.84;;;3.84;;
54328;SDS011;40710;51.120;13.136;2023-07-02T06:09:16;3.85;;;3.85;;
54328;SDS011;40710;51.120;13.136;2023-07-02T06:11:41;4.26;;;4.26;;
54328;SDS011;40710;51.120;13.136;2023-07-02T06:14:05;4.38;;;4.38;;
54328;SDS011;40710;51.120;13.136;2023-07-02T06:16:30;3.87;;;3.87;;
54328;SDS011;40710;51.120;13.136;2023-07-02T06:18:54;4.06;;;4.06;;
54328;SDS011;40710;51.120;13.136;2023-07-02T06:21:19;4.72;;;4.72;;
54328;SDS011;40710;51.120;13.136;2023-07-02T06:23:44;4.39;;;4.39;;
54328;SDS011;40710;51.120;13.136;2023-07-02T06:26:09;4.67;;;4.67;;
54328;SDS011;40710;51.120;13.136;2023-07-02T06:28:34;4.45;;;4.45;;
54328;SDS011;40710;51.120;13.136;2023-07-02T06:30:58;4.82;;;4.82;;
54328;SDS011;40710;51.120;13.136;2023-07-02T06:33:23;5.03;;;5.03;;
54328;SDS011;40710;51.120;13.136;2023-07-02T06:35:48;4.66;;;4.66;;
54328;SDS011;40710;51.120;13.136;2023-07-02T06:38:13;5.07;;;5.07;;
54328;SDS011;40710;51.120;13.136;2023-07-02T06:40:37;4.66;;;4.66;;
54328;SDS011;40710;51.120;13.136;2023-07-02T06:43:02;4.72;;;4.72;;
54328;SDS011;40710;51.120;13.136;2023-07-02T06:45:26;5.39;;;5.39;;
54328;SDS011;40710;51.120;13.136;2023-07-02T06:47:51;7.33;;;7.33;;
54328;SDS011;40710;51.120;13.136;2023-07-02T06:50:15;7.29;;;7.29;;
54328;SDS011;40710;51.120;13.136;2023-07-02T06:52:40;5.31;;;5.31;;
54328;SDS011;40710;51.120;13.136;2023-07-02T06:55:05;5.07;;;5.07;;
54328;SDS011;40710;51.120;13.136;2023-07-02T06:57:29;5.35;;;5.35;;
54328;SDS011;40710;51.120;13.136;2023-07-02T06:59:57;5.37;;;5.37;;
54328;SDS011;40710;51.120;13.136;2023-07-02T07:02:23;4.97;;;4.97;;
54328;SDS011;40710;51.120;13.136;2023-07-02T07:04:47;5.15;;;5.15;;
54328;SDS011;40710;51.120;13.136;2023-07-02T07:07:12;4.85;;;4.85;;
54328;SDS011;40710;51.120;13.136;2023-07-02T07:09:37;4.80;;;4.80;;
54328;SDS011;40710;51.120;13.136;2023-07-02T07:12:01;5.10;;;5.10;;
54328;SDS011;40710;51.120;13.136;2023-07-02T07:14:26;4.48;;;4.48;;
54328;SDS011;40710;51.120;13.136;2023-07-02T07:16:50;4.43;;;4.43;;
54328;SDS011;40710;51.120;13.136;2023-07-02T07:19:15;4.77;;;4.77;;
54328;SDS011;40710;51.120;13.136;2023-07-02T07:21:40;4.46;;;4.46;;
54328;SDS011;40710;51.120;13.136;2023-07-02T07:24:05;4.43;;;4.43;;
54328;SDS011;40710;51.120;13.136;2023-07-02T07:26:30;4.33;;;4.33;;
54328;SDS011;40710;51.120;13.136;2023-07-02T07:28:54;4.07;;;4.07;;
54328;SDS011;40710;51.120;13.136;2023-07-02T07:31:20;4.09;;;4.09;;
54328;SDS011;40710;51.120;13.136;2023-07-02T07:33:44;4.02;;;4.02;;
54328;SDS011;40710;51.120;13.136;2023-07-02T07:36:09;4.03;;;4.03;;
54328;SDS011;40710;51.120;13.136;2023-07-02T07:38:33;4.70;;;4.70;;
54328;SDS011;40710;51.120;13.136;2023-07-02T07:40:58;9.00;;;9.00;;
54328;SDS011;40710;51.120;13.136;2023-07-02T07:43:22;5.93;;;5.93;;
54328;SDS011;40710;51.120;13.136;2023-07-02T07:45:47;5.31;;;5.31;;
54328;SDS011;40710;51.120;13.136;2023-07-02T07:48:11;4.34;;;4.34;;
54328;SDS011;40710;51.120;13.136;2023-07-02T07:50:36;4.26;;;4.26;;
54328;SDS011;40710;51.120;13.136;2023-07-02T07:53:01;3.93;;;3.93;;
54328;SDS011;40710;51.120;13.136;2023-07-02T07:55:25;3.87;;;3.87;;
54328;SDS011;40710;51.120;13.136;2023-07-02T07:57:50;3.79;;;3.79;;
54328;SDS011;40710;51.120;13.136;2023-07-02T08:00:15;4.17;;;4.17;;
54328;SDS011;40710;51.120;13.136;2023-07-02T08:02:40;4.25;;;4.25;;
54328;SDS011;40710;51.120;13.136;2023-07-02T08:05:04;3.96;;;3.96;;
54328;SDS011;40710;51.120;13.136;2023-07-02T08:07:33;4.11;;;4.11;;
54328;SDS011;40710;51.120;13.136;2023-07-02T08:09:58;3.70;;;3.70;;
54328;SDS011;40710;51.120;13.136;2023-07-02T08:12:23;4.15;;;4.15;;
54328;SDS011;40710;51.120;13.136;2023-07-02T08:14:48;3.72;;;3.72;;
54328;SDS011;40710;51.120;13.136;2023-07-02T08:17:13;3.99;;;3.99;;
54328;SDS011;40710;51.120;13.136;2023-07-02T08:19:37;3.69;;;3.69;;
54328;SDS011;40710;51.120;13.136;2023-07-02T08:22:02;3.65;;;3.65;;
54328;SDS011;40710;51.120;13.136;2023-07-02T08:24:26;3.59;;;3.59;;
54328;SDS011;40710;51.120;13.136;2023-07-02T08:26:51;3.33;;;3.33;;
54328;SDS011;40710;51.120;13.136;2023-07-02T08:29:16;3.37;;;3.37;;
54328;SDS011;40710;51.120;13.136;2023-07-02T08:31:40;3.43;;;3.43;;
54328;SDS011;40710;51.120;13.136;2023-07-02T08:34:05;3.65;;;3.65;;
54328;SDS011;40710;51.120;13.136;2023-07-02T08:36:30;3.28;;;3.28;;
54328;SDS011;40710;51.120;13.136;2023-07-02T08:38:54;3.38;;;3.38;;
54328;SDS011;40710;51.120;13.136;2023-07-02T08:41:20;3.28;;;3.28;;
54328;SDS011;40710;51.120;13.136;2023-07-02T08:43:45;3.23;;;3.23;;
54328;SDS011;40710;51.120;13.136;2023-07-02T08:46:12;2.79;;;2.79;;
54328;SDS011;40710;51.120;13.136;2023-07-02T08:48:39;3.03;;;3.03;;
54328;SDS011;40710;51.120;13.136;2023-07-02T08:51:04;3.00;;;3.00;;
54328;SDS011;40710;51.120;13.136;2023-07-02T08:53:29;3.00;;;3.00;;
54328;SDS011;40710;51.120;13.136;2023-07-02T08:55:57;3.06;;;3.06;;
54328;SDS011;40710;51.120;13.136;2023-07-02T08:58:22;3.04;;;3.04;;
54328;SDS011;40710;51.120;13.136;2023-07-02T09:03:31;2.81;;;2.81;;
54328;SDS011;40710;51.120;13.136;2023-07-02T09:05:55;2.77;;;2.77;;
54328;SDS011;40710;51.120;13.136;2023-07-02T09:08:24;2.89;;;2.89;;
54328;SDS011;40710;51.120;13.136;2023-07-02T09:10:49;2.98;;;2.98;;
54328;SDS011;40710;51.120;13.136;2023-07-02T09:13:14;3.01;;;3.01;;
54328;SDS011;40710;51.120;13.136;2023-07-02T09:15:39;2.86;;;2.86;;
54328;SDS011;40710;51.120;13.136;2023-07-02T09:18:14;2.79;;;2.79;;
54328;SDS011;40710;51.120;13.136;2023-07-02T09:20:39;2.52;;;2.52;;
54328;SDS011;40710;51.120;13.136;2023-07-02T09:23:04;2.40;;;2.40;;
54328;SDS011;40710;51.120;13.136;2023-07-02T09:25:38;2.41;;;2.41;;
54328;SDS011;40710;51.120;13.136;2023-07-02T09:28:13;2.43;;;2.43;;
54328;SDS011;40710;51.120;13.136;2023-07-02T09:30:48;2.36;;;2.36;;
54328;SDS011;40710;51.120;13.136;2023-07-02T09:33:17;2.67;;;2.67;;
54328;SDS011;40710;51.120;13.136;2023-07-02T09:35:41;2.49;;;2.49;;
54328;SDS011;40710;51.120;13.136;2023-07-02T09:38:06;2.63;;;2.63;;
54328;SDS011;40710;51.120;13.136;2023-07-02T09:40:31;2.74;;;2.74;;
54328;SDS011;40710;51.120;13.136;2023-07-02T09:42:56;2.74;;;2.74;;
54328;SDS011;40710;51.120;13.136;2023-07-02T09:45:23;2.56;;;2.56;;
54328;SDS011;40710;51.120;13.136;2023-07-02T09:47:49;2.58;;;2.58;;
54328;SDS011;40710;51.120;13.136;2023-07-02T09:50:16;2.76;;;2.76;;
54328;SDS011;40710;51.120;13.136;2023-07-02T09:52:44;2.49;;;2.49;;
54328;SDS011;40710;51.120;13.136;2023-07-02T09:55:11;2.62;;;2.62;;
54328;SDS011;40710;51.120;13.136;2023-07-02T09:57:36;2.60;;;2.60;;
54328;SDS011;40710;51.120;13.136;2023-07-02T10:00:01;2.36;;;2.36;;
54328;SDS011;40710;51.120;13.136;2023-07-02T10:02:26;2.16;;;2.16;;
54328;SDS011;40710;51.120;13.136;2023-07-02T10:04:51;2.41;;;2.41;;
54328;SDS011;40710;51.120;13.136;2023-07-02T10:07:29;2.35;;;2.35;;
54328;SDS011;40710;51.120;13.136;2023-07-02T10:09:55;2.72;;;2.72;;
54328;SDS011;40710;51.120;13.136;2023-07-02T10:12:20;2.56;;;2.56;;
54328;SDS011;40710;51.120;13.136;2023-07-02T10:14:53;2.43;;;2.43;;
54328;SDS011;40710;51.120;13.136;2023-07-02T10:17:23;2.77;;;2.77;;
54328;SDS011;40710;51.120;13.136;2023-07-02T10:19:52;2.39;;;2.39;;
54328;SDS011;40710;51.120;13.136;2023-07-02T10:22:18;2.46;;;2.46;;
54328;SDS011;40710;51.120;13.136;2023-07-02T10:24:58;2.12;;;2.12;;
54328;SDS011;40710;51.120;13.136;2023-07-02T10:27:37;2.60;;;2.60;;
54328;SDS011;40710;51.120;13.136;2023-07-02T10:30:04;5.92;;;5.92;;
54328;SDS011;40710;51.120;13.136;2023-07-02T10:32:30;4.33;;;4.33;;
54328;SDS011;40710;51.120;13.136;2023-07-02T10:34:55;3.03;;;3.03;;
54328;SDS011;40710;51.120;13.136;2023-07-02T10:37:20;3.74;;;3.74;;
54328;SDS011;40710;51.120;13.136;2023-07-02T10:39:45;2.81;;;2.81;;
54328;SDS011;40710;51.120;13.136;2023-07-02T10:42:10;2.73;;;2.73;;
54328;SDS011;40710;51.120;13.136;2023-07-02T10:44:35;3.64;;;3.64;;
54328;SDS011;40710;51.120;13.136;2023-07-02T10:47:12;3.42;;;3.36;;
54328;SDS011;40710;51.120;13.136;2023-07-02T10:49:36;3.42;;;3.42;;
54328;SDS011;40710;51.120;13.136;2023-07-02T10:52:01;2.78;;;2.78;;
54328;SDS011;40710;51.120;13.136;2023-07-02T10:54:41;3.11;;;3.11;;
54328;SDS011;40710;51.120;13.136;2023-07-02T10:57:07;3.07;;;3.07;;
54328;SDS011;40710;51.120;13.136;2023-07-02T10:59:32;3.09;;;3.09;;
54328;SDS011;40710;51.120;13.136;2023-07-02T11:01:57;3.01;;;3.01;;
54328;SDS011;40710;51.120;13.136;2023-07-02T11:04:26;2.87;;;2.87;;
54328;SDS011;40710;51.120;13.136;2023-07-02T11:06:50;3.08;;;3.08;;
54328;SDS011;40710;51.120;13.136;2023-07-02T11:09:15;2.77;;;2.77;;
54328;SDS011;40710;51.120;13.136;2023-07-02T11:11:51;3.09;;;3.09;;
54328;SDS011;40710;51.120;13.136;2023-07-02T11:14:26;3.29;;;3.29;;
54328;SDS011;40710;51.120;13.136;2023-07-02T11:16:53;3.60;;;3.60;;
54328;SDS011;40710;51.120;13.136;2023-07-02T11:19:19;3.45;;;3.45;;
54328;SDS011;40710;51.120;13.136;2023-07-02T11:21:50;3.62;;;3.62;;
54328;SDS011;40710;51.120;13.136;2023-07-02T11:24:16;3.60;;;3.60;;
54328;SDS011;40710;51.120;13.136;2023-07-02T11:26:50;3.94;;;3.94;;
54328;SDS011;40710;51.120;13.136;2023-07-02T11:29:17;3.82;;;3.82;;
54328;SDS011;40710;51.120;13.136;2023-07-02T11:31:43;3.38;;;3.38;;
54328;SDS011;40710;51.120;13.136;2023-07-02T11:34:11;3.45;;;3.45;;
54328;SDS011;40710;51.120;13.136;2023-07-02T11:36:37;3.52;;;3.52;;
54328;SDS011;40710;51.120;13.136;2023-07-02T11:39:01;3.47;;;3.47;;
54328;SDS011;40710;51.120;13.136;2023-07-02T11:41:35;3.29;;;3.29;;
54328;SDS011;40710;51.120;13.136;2023-07-02T11:44:00;3.11;;;3.11;;
54328;SDS011;40710;51.120;13.136;2023-07-02T11:46:25;3.49;;;3.49;;
54328;SDS011;40710;51.120;13.136;2023-07-02T11:48:49;3.50;;;3.50;;
54328;SDS011;40710;51.120;13.136;2023-07-02T11:51:14;4.00;;;4.00;;
54328;SDS011;40710;51.120;13.136;2023-07-02T11:53:40;5.08;;;5.08;;
54328;SDS011;40710;51.120;13.136;2023-07-02T11:56:04;3.50;;;3.50;;
54328;SDS011;40710;51.120;13.136;2023-07-02T11:58:29;4.06;;;4.06;;
54328;SDS011;40710;51.120;13.136;2023-07-02T12:00:53;3.66;;;3.66;;
54328;SDS011;40710;51.120;13.136;2023-07-02T12:03:18;3.55;;;3.55;;
54328;SDS011;40710;51.120;13.136;2023-07-02T12:05:42;3.57;;;3.57;;
54328;SDS011;40710;51.120;13.136;2023-07-02T12:08:07;3.29;;;3.29;;
54328;SDS011;40710;51.120;13.136;2023-07-02T12:10:32;3.46;;;3.46;;
54328;SDS011;40710;51.120;13.136;2023-07-02T12:12:57;3.22;;;3.22;;
54328;SDS011;40710;51.120;13.136;2023-07-02T12:15:21;3.75;;;3.75;;
54328;SDS011;40710;51.120;13.136;2023-07-02T12:17:46;4.01;;;4.01;;
54328;SDS011;40710;51.120;13.136;2023-07-02T12:20:11;3.57;;;3.57;;
54328;SDS011;40710;51.120;13.136;2023-07-02T12:22:35;3.90;;;3.90;;
54328;SDS011;40710;51.120;13.136;2023-07-02T12:25:00;4.13;;;4.13;;
54328;SDS011;40710;51.120;13.136;2023-07-02T12:27:24;4.21;;;4.21;;
54328;SDS011;40710;51.120;13.136;2023-07-02T12:29:51;3.95;;;3.95;;
54328;SDS011;40710;51.120;13.136;2023-07-02T12:32:15;3.92;;;3.92;;
54328;SDS011;40710;51.120;13.136;2023-07-02T12:34:40;4.57;;;4.57;;
54328;SDS011;40710;51.120;13.136;2023-07-02T12:37:04;3.94;;;3.94;;
54328;SDS011;40710;51.120;13.136;2023-07-02T12:39:29;4.06;;;4.06;;
54328;SDS011;40710;51.120;13.136;2023-07-02T12:41:54;4.42;;;4.42;;
54328;SDS011;40710;51.120;13.136;2023-07-02T12:44:18;4.61;;;4.61;;
54328;SDS011;40710;51.120;13.136;2023-07-02T12:46:43;4.72;;;4.72;;
54328;SDS011;40710;51.120;13.136;2023-07-02T12:49:07;4.64;;;4.64;;
54328;SDS011;40710;51.120;13.136;2023-07-02T12:51:32;4.60;;;4.60;;
54328;SDS011;40710;51.120;13.136;2023-07-02T12:53:56;4.57;;;4.57;;
54328;SDS011;40710;51.120;13.136;2023-07-02T12:56:21;4.37;;;4.37;;
54328;SDS011;40710;51.120;13.136;2023-07-02T12:58:45;4.40;;;4.40;;
54328;SDS011;40710;51.120;13.136;2023-07-02T13:01:10;4.53;;;4.53;;
54328;SDS011;40710;51.120;13.136;2023-07-02T13:03:34;4.12;;;4.12;;
54328;SDS011;40710;51.120;13.136;2023-07-02T13:05:59;4.44;;;4.44;;
54328;SDS011;40710;51.120;13.136;2023-07-02T13:08:24;4.10;;;4.10;;
54328;SDS011;40710;51.120;13.136;2023-07-02T13:10:48;4.33;;;4.33;;
54328;SDS011;40710;51.120;13.136;2023-07-02T13:13:13;4.12;;;4.12;;
54328;SDS011;40710;51.120;13.136;2023-07-02T13:15:37;4.58;;;4.58;;
54328;SDS011;40710;51.120;13.136;2023-07-02T13:18:02;5.10;;;5.10;;
54328;SDS011;40710;51.120;13.136;2023-07-02T13:20:27;4.38;;;4.38;;
54328;SDS011;40710;51.120;13.136;2023-07-02T13:22:51;4.46;;;4.46;;
54328;SDS011;40710;51.120;13.136;2023-07-02T13:25:16;4.79;;;4.79;;
54328;SDS011;40710;51.120;13.136;2023-07-02T13:27:41;4.90;;;4.90;;
54328;SDS011;40710;51.120;13.136;2023-07-02T13:30:05;4.61;;;4.61;;
54328;SDS011;40710;51.120;13.136;2023-07-02T13:32:30;4.42;;;4.42;;
54328;SDS011;40710;51.120;13.136;2023-07-02T13:34:55;4.61;;;4.61;;
54328;SDS011;40710;51.120;13.136;2023-07-02T13:37:19;4.88;;;4.87;;
54328;SDS011;40710;51.120;13.136;2023-07-02T13:39:47;4.88;;;4.76;;
54328;SDS011;40710;51.120;13.136;2023-07-02T13:42:13;4.90;;;4.88;;
54328;SDS011;40710;51.120;13.136;2023-07-02T13:44:38;5.12;;;5.12;;
54328;SDS011;40710;51.120;13.136;2023-07-02T13:47:03;5.50;;;5.50;;
54328;SDS011;40710;51.120;13.136;2023-07-02T13:49:28;5.25;;;5.25;;
54328;SDS011;40710;51.120;13.136;2023-07-02T13:51:53;5.67;;;5.67;;
54328;SDS011;40710;51.120;13.136;2023-07-02T13:54:18;6.08;;;6.08;;
54328;SDS011;40710;51.120;13.136;2023-07-02T13:56:42;5.77;;;5.75;;
54328;SDS011;40710;51.120;13.136;2023-07-02T13:59:07;5.86;;;5.86;;
54328;SDS011;40710;51.120;13.136;2023-07-02T14:01:32;6.14;;;6.14;;
54328;SDS011;40710;51.120;13.136;2023-07-02T14:03:57;5.73;;;5.71;;
54328;SDS011;40710;51.120;13.136;2023-07-02T14:06:22;6.11;;;6.07;;
54328;SDS011;40710;51.120;13.136;2023-07-02T14:08:47;5.93;;;5.91;;
54328;SDS011;40710;51.120;13.136;2023-07-02T14:11:11;5.84;;;5.84;;
54328;SDS011;40710;51.120;13.136;2023-07-02T14:13:36;6.71;;;6.69;;
54328;SDS011;40710;51.120;13.136;2023-07-02T14:16:00;7.06;;;7.06;;
54328;SDS011;40710;51.120;13.136;2023-07-02T14:18:25;6.79;;;6.79;;
54328;SDS011;40710;51.120;13.136;2023-07-02T14:20:49;6.66;;;6.66;;
54328;SDS011;40710;51.120;13.136;2023-07-02T14:23:14;6.38;;;6.38;;
54328;SDS011;40710;51.120;13.136;2023-07-02T14:25:38;8.06;;;7.92;;
54328;SDS011;40710;51.120;13.136;2023-07-02T14:28:03;7.26;;;7.23;;
54328;SDS011;40710;51.120;13.136;2023-07-02T14:30:28;7.13;;;7.13;;